createdAt,value
2023-05-23T00:00:14.267Z,42.25
2023-05-23T00:03:02.728Z,43.50
2023-05-23T00:09:08.949Z,39.53
2023-05-23T00:15:13.502Z,37.70
2023-05-23T00:18:00.374Z,39.13
2023-05-23T00:20:46.985Z,39.80
2023-05-23T00:23:33.867Z,41.47
2023-05-23T00:26:29.911Z,40.08
2023-05-23T00:29:22.478Z,39.80
2023-05-23T00:32:17.069Z,37.00
2023-05-23T00:35:10.407Z,30.33
2023-05-23T00:38:03.330Z,34.53
2023-05-23T00:40:55.856Z,33.38
2023-05-23T00:43:48.659Z,38.15
2023-05-23T00:46:42.680Z,41.22
2023-05-23T00:49:37.266Z,36.55
2023-05-23T00:52:29.323Z,41.90
2023-05-23T00:55:21.681Z,41.25
2023-05-23T00:58:15.207Z,44.58
2023-05-23T01:01:09.483Z,43.47
2023-05-23T01:04:04.336Z,42.55
2023-05-23T01:10:10.208Z,45.20
2023-05-23T01:16:34.224Z,43.35
2023-05-23T01:19:44.633Z,44.60
2023-05-23T01:22:45.823Z,39.38
2023-05-23T01:29:10.202Z,35.72
2023-05-23T01:32:03.707Z,40.28
2023-05-23T01:34:56.761Z,37.05
2023-05-23T01:37:49.710Z,36.83
2023-05-23T01:40:42.354Z,38.67
2023-05-23T01:49:46.254Z,39.30
2023-05-23T01:52:34.940Z,40.88
2023-05-23T01:55:27.828Z,41.78
2023-05-23T01:58:21.124Z,43.13
2023-05-23T02:01:13.770Z,40.75
2023-05-23T02:04:01.589Z,40.65
2023-05-23T02:06:54.535Z,38.15
2023-05-23T02:09:47.505Z,36.53
2023-05-23T02:12:40.910Z,33.95
2023-05-23T02:18:46.903Z,26.50
2023-05-23T02:21:41.187Z,25.30
2023-05-23T02:27:49.988Z,24.88
2023-05-23T02:33:58.986Z,25.50
2023-05-23T02:36:52.966Z,23.58
2023-05-23T02:39:45.799Z,25.00
2023-05-23T02:42:39.728Z,23.83
2023-05-23T02:45:32.420Z,23.67
2023-05-23T02:48:41.663Z,24.33
2023-05-23T02:51:32.660Z,26.45
2023-05-23T02:58:13.082Z,27.35
2023-05-23T03:01:34.009Z,27.40
2023-05-23T03:04:27.604Z,28.15
2023-05-23T03:10:32.959Z,26.58
2023-05-23T03:13:26.669Z,26.27
2023-05-23T03:16:19.478Z,25.17
2023-05-23T03:19:11.719Z,24.25
2023-05-23T03:22:04.614Z,23.98
2023-05-23T03:24:57.732Z,23.80
2023-05-23T03:31:13.093Z,21.50
2023-05-23T03:34:06.200Z,20.25
2023-05-23T03:36:58.816Z,20.63
2023-05-23T03:39:52.340Z,20.58
2023-05-23T03:42:44.461Z,20.70
2023-05-23T03:45:37.378Z,21.52
2023-05-23T03:48:38.836Z,22.90
2023-05-23T03:51:32.679Z,23.55
2023-05-23T03:54:25.793Z,24.38
2023-05-23T03:57:18.835Z,24.83
2023-05-23T04:03:26.088Z,26.95
2023-05-23T04:06:22.705Z,29.73
2023-05-23T04:09:15.564Z,28.23
2023-05-23T04:12:11.864Z,31.73
2023-05-23T04:15:05.072Z,30.13
2023-05-23T04:21:12.174Z,27.50
2023-05-23T04:27:17.338Z,24.75
2023-05-23T04:30:12.164Z,24.77
2023-05-23T04:33:13.992Z,24.38
2023-05-23T04:36:09.132Z,25.20
2023-05-23T04:39:05.084Z,21.98
2023-05-23T04:42:29.198Z,22.70
2023-05-23T04:45:28.532Z,22.27
2023-05-23T04:48:27.985Z,21.50
2023-05-23T04:51:22.537Z,20.83
2023-05-23T04:54:20.907Z,21.73
2023-05-23T04:57:13.836Z,22.00
2023-05-23T05:00:10.321Z,21.23
2023-05-23T05:03:03.683Z,22.45
2023-05-23T05:09:12.996Z,22.73
2023-05-23T05:15:21.350Z,22.35
2023-05-23T05:18:18.786Z,20.63
2023-05-23T05:21:12.781Z,22.38
2023-05-23T05:24:09.524Z,21.27
2023-05-23T05:27:02.694Z,21.23
2023-05-23T05:29:58.327Z,20.27
2023-05-23T05:32:52.883Z,22.50
2023-05-23T05:35:45.908Z,22.10
2023-05-23T05:38:56.079Z,22.77
2023-05-23T05:41:45.903Z,22.02
2023-05-23T05:48:02.159Z,21.58
2023-05-23T05:54:02.520Z,17.20
2023-05-23T06:00:15.130Z,18.40
2023-05-23T06:03:21.377Z,18.15
2023-05-23T06:06:19.968Z,19.10
2023-05-23T06:09:13.658Z,18.55
2023-05-23T06:12:07.495Z,17.88
2023-05-23T06:14:59.586Z,16.73
2023-05-23T06:17:52.907Z,17.55
2023-05-23T06:24:00.330Z,16.77
2023-05-23T06:26:52.626Z,15.45
2023-05-23T06:29:45.870Z,16.58
2023-05-23T06:32:38.940Z,15.43
2023-05-23T06:35:32.104Z,14.20
2023-05-23T06:38:27.790Z,13.45
2023-05-23T06:41:22.569Z,13.23
2023-05-23T06:44:17.941Z,13.32
2023-05-23T06:47:10.325Z,12.55
2023-05-23T06:50:03.825Z,12.70
2023-05-23T06:52:58.553Z,12.13
2023-05-23T06:59:28.848Z,10.90
2023-05-23T07:02:58.949Z,10.40
2023-05-23T07:05:52.198Z,10.85
2023-05-23T07:11:54.361Z,10.20
2023-05-23T07:18:36.887Z,9.60
2023-05-23T07:21:43.833Z,9.27
2023-05-23T07:24:38.738Z,10.73
2023-05-23T07:27:32.788Z,9.65
2023-05-23T07:30:21.336Z,9.77
2023-05-23T07:33:14.365Z,9.73
2023-05-23T07:36:10.052Z,8.75
2023-05-23T07:39:02.619Z,8.10
2023-05-23T07:41:55.316Z,8.00
2023-05-23T07:44:48.463Z,7.75
2023-05-23T07:47:42.444Z,5.97
2023-05-23T07:50:35.743Z,5.70
2023-05-23T07:53:29.859Z,4.70
2023-05-23T07:56:24.034Z,4.35
2023-05-23T07:59:16.714Z,4.47
2023-05-23T08:02:10.826Z,3.78
2023-05-23T08:08:25.543Z,3.92
2023-05-23T08:14:50.607Z,2.97
2023-05-23T08:17:49.868Z,2.60
2023-05-23T08:24:05.048Z,2.63
2023-05-23T08:26:58.675Z,2.00
2023-05-23T08:33:07.154Z,2.30
2023-05-23T08:39:14.238Z,1.88
2023-05-23T08:42:14.542Z,2.03
2023-05-23T08:45:08.825Z,1.23
2023-05-23T08:48:02.638Z,1.70
2023-05-23T08:50:59.403Z,1.80
2023-05-23T08:53:53.581Z,1.60
2023-05-23T08:56:49.087Z,1.90
2023-05-23T08:59:42.223Z,1.80
2023-05-23T09:02:34.733Z,2.08
2023-05-23T09:05:39.948Z,2.00
2023-05-23T09:08:35.000Z,2.10
2023-05-23T09:11:24.188Z,2.20
2023-05-23T09:14:17.981Z,1.95
2023-05-23T09:17:11.480Z,2.35
2023-05-23T09:23:23.700Z,1.98
2023-05-23T09:26:17.889Z,2.00
2023-05-23T09:29:10.764Z,2.33
2023-05-23T09:35:16.487Z,3.33
2023-05-23T09:41:26.523Z,3.45
2023-05-23T09:44:24.440Z,4.07
2023-05-23T09:47:17.186Z,5.35
2023-05-23T09:50:10.184Z,4.70
2023-05-23T09:53:02.631Z,4.57
2023-05-23T09:55:57.129Z,4.75
2023-05-23T09:58:51.816Z,4.78
2023-05-23T10:01:46.046Z,6.03
2023-05-23T10:04:41.212Z,5.05
2023-05-23T10:07:34.328Z,5.70
2023-05-23T10:13:42.093Z,5.30
2023-05-23T10:19:38.516Z,5.45
2023-05-23T10:25:43.107Z,5.35
2023-05-23T10:28:35.962Z,5.60
2023-05-23T10:31:22.386Z,5.90
2023-05-23T10:34:16.559Z,5.20
2023-05-23T10:37:04.514Z,6.78
2023-05-23T10:39:58.553Z,6.47
2023-05-23T10:42:50.907Z,5.28
2023-05-23T10:45:43.187Z,5.35
2023-05-23T10:52:09.006Z,5.78
2023-05-23T10:58:13.619Z,5.93
2023-05-23T11:01:02.129Z,5.82
2023-05-23T11:07:33.373Z,5.90
2023-05-23T11:10:25.576Z,4.20
2023-05-23T11:13:21.356Z,4.68
2023-05-23T11:16:26.521Z,4.40
2023-05-23T11:19:27.841Z,5.28
2023-05-23T11:22:21.402Z,5.45
2023-05-23T11:25:16.728Z,4.47
2023-05-23T11:28:10.064Z,4.60
2023-05-23T11:31:02.748Z,4.18
2023-05-23T11:34:11.803Z,5.30
2023-05-23T11:37:02.639Z,4.00
2023-05-23T11:43:22.008Z,5.15
2023-05-23T11:49:19.574Z,4.20
2023-05-23T11:55:30.773Z,4.55
2023-05-23T11:58:27.695Z,3.95
2023-05-23T12:01:21.182Z,3.55
2023-05-23T12:04:13.947Z,3.35
2023-05-23T12:07:08.160Z,4.30
2023-05-23T12:10:00.551Z,4.45
2023-05-23T12:12:54.068Z,4.60
2023-05-23T12:16:23.992Z,5.45
2023-05-23T12:19:18.854Z,5.57
2023-05-23T12:22:11.888Z,5.43
2023-05-23T12:28:16.214Z,4.25
2023-05-23T12:34:13.851Z,4.57
2023-05-23T12:40:21.072Z,4.18
2023-05-23T12:46:27.842Z,3.85
2023-05-23T12:49:21.739Z,3.37
2023-05-23T12:52:14.775Z,3.40
2023-05-23T12:55:08.634Z,4.07
2023-05-23T13:01:19.511Z,3.47
2023-05-23T13:07:25.139Z,3.72
2023-05-23T13:10:17.703Z,3.72
2023-05-23T13:13:10.940Z,3.53
2023-05-23T13:16:03.678Z,3.65
2023-05-23T13:18:58.362Z,5.28
2023-05-23T13:21:51.580Z,4.95
2023-05-23T13:24:45.024Z,3.67
2023-05-23T13:27:39.588Z,3.97
2023-05-23T13:30:32.763Z,3.42
2023-05-23T13:33:25.883Z,3.85
2023-05-23T13:36:20.303Z,4.03
2023-05-23T13:39:13.062Z,3.67
2023-05-23T13:42:07.772Z,4.20
2023-05-23T13:45:00.892Z,4.38
2023-05-23T13:47:53.864Z,3.55
2023-05-23T13:50:47.489Z,4.82
2023-05-23T13:53:41.171Z,4.07
2023-05-23T13:56:34.414Z,3.92
2023-05-23T13:59:40.769Z,3.45
2023-05-23T14:02:33.716Z,3.28
2023-05-23T14:08:49.249Z,3.88
2023-05-23T14:11:41.673Z,5.00
2023-05-23T14:14:34.834Z,3.05
2023-05-23T14:17:27.773Z,4.50
2023-05-23T14:20:45.972Z,3.97
2023-05-23T14:23:38.489Z,4.85
2023-05-23T14:26:31.777Z,3.53
2023-05-23T14:29:48.872Z,3.45
2023-05-23T14:32:38.973Z,4.82
2023-05-23T14:35:31.676Z,4.20
2023-05-23T14:38:25.025Z,3.85
2023-05-23T14:41:18.596Z,3.58
2023-05-23T14:44:13.155Z,3.42
2023-05-23T14:47:06.099Z,3.45
2023-05-23T14:49:58.726Z,4.00
2023-05-23T14:52:51.655Z,3.80
2023-05-23T14:55:44.903Z,3.13
2023-05-23T14:58:40.114Z,3.88
2023-05-23T15:01:34.371Z,3.60
2023-05-23T15:04:27.784Z,3.70
2023-05-23T15:07:20.581Z,3.55
2023-05-23T15:10:13.967Z,3.13
2023-05-23T15:13:06.756Z,4.65
2023-05-23T15:15:59.523Z,3.28
2023-05-23T15:18:53.131Z,3.00
2023-05-23T15:21:51.120Z,3.53
2023-05-23T15:24:44.917Z,2.97
2023-05-23T15:27:38.219Z,3.28
2023-05-23T15:30:30.761Z,3.22
2023-05-23T15:33:24.187Z,3.38
2023-05-23T15:39:30.435Z,3.90
2023-05-23T15:45:39.116Z,3.80
2023-05-23T15:51:48.800Z,3.35
2023-05-23T15:54:42.979Z,4.43
2023-05-23T15:57:32.044Z,2.65
2023-05-23T16:00:25.127Z,3.00
2023-05-23T16:03:17.917Z,2.72
2023-05-23T16:06:10.984Z,3.47
2023-05-23T16:09:04.289Z,3.08
2023-05-23T16:11:58.100Z,3.05
2023-05-23T16:18:26.773Z,3.42
2023-05-23T16:21:37.111Z,3.00
2023-05-23T16:24:28.076Z,3.38
2023-05-23T16:31:08.062Z,2.97
2023-05-23T16:34:16.156Z,4.05
2023-05-23T16:37:07.868Z,2.65
2023-05-23T16:43:47.002Z,3.08
2023-05-23T16:46:57.111Z,2.97
2023-05-23T16:49:48.460Z,4.47
2023-05-23T16:56:01.936Z,2.42
2023-05-23T17:02:01.679Z,3.47
2023-05-23T17:08:12.422Z,4.30
2023-05-23T17:14:17.394Z,2.80
2023-05-23T17:17:09.617Z,4.57
2023-05-23T17:19:56.284Z,3.80
2023-05-23T17:22:49.164Z,3.03
2023-05-23T17:25:43.667Z,2.97
2023-05-23T17:28:36.777Z,3.00
2023-05-23T17:31:30.804Z,4.55
2023-05-23T17:34:24.121Z,2.80
2023-05-23T17:40:47.192Z,2.20
2023-05-23T17:44:17.024Z,4.28
2023-05-23T17:47:09.520Z,3.05
2023-05-23T17:50:19.107Z,3.28
2023-05-23T17:53:09.096Z,3.17
2023-05-23T17:59:28.426Z,3.97
2023-05-23T18:05:29.592Z,4.07
2023-05-23T18:11:38.429Z,2.97
2023-05-23T18:17:44.671Z,3.50
2023-05-23T18:20:37.788Z,2.20
2023-05-23T18:23:30.664Z,4.22
2023-05-23T18:26:23.817Z,2.67
2023-05-23T18:29:16.910Z,2.40
2023-05-23T18:32:11.848Z,2.53
2023-05-23T18:35:06.712Z,2.97
2023-05-23T18:38:00.030Z,2.80
2023-05-23T18:40:53.132Z,3.03
2023-05-23T18:43:39.866Z,2.20
2023-05-23T18:46:32.855Z,3.20
2023-05-23T18:49:26.266Z,3.17
2023-05-23T18:52:20.061Z,2.30
2023-05-23T18:55:12.904Z,3.20
2023-05-23T18:58:08.532Z,2.83
2023-05-23T19:01:03.522Z,2.60
2023-05-23T19:03:56.906Z,2.88
2023-05-23T19:06:51.204Z,4.45
2023-05-23T19:09:46.095Z,3.38
2023-05-23T19:12:39.730Z,2.80
2023-05-23T19:15:32.870Z,2.95
2023-05-23T19:21:46.696Z,2.78
2023-05-23T19:28:06.044Z,3.63
2023-05-23T19:30:58.635Z,2.20
2023-05-23T19:33:52.072Z,2.22
2023-05-23T19:36:44.717Z,2.63
2023-05-23T19:42:54.300Z,2.90
2023-05-23T19:45:48.337Z,2.65
2023-05-23T19:48:40.683Z,2.92
2023-05-23T19:51:35.738Z,2.83
2023-05-23T19:54:29.974Z,3.20
2023-05-23T19:57:23.007Z,3.60
2023-05-23T20:03:35.165Z,2.92
2023-05-23T20:09:40.082Z,3.80
2023-05-23T20:12:32.949Z,3.15
2023-05-23T20:15:39.957Z,3.80
2023-05-23T20:18:34.929Z,4.40
2023-05-23T20:21:27.891Z,4.18
2023-05-23T20:24:20.983Z,3.42
2023-05-23T20:27:13.666Z,3.30
2023-05-23T20:30:08.058Z,3.38
2023-05-23T20:33:00.991Z,3.30
2023-05-23T20:36:06.847Z,3.75
2023-05-23T20:39:00.142Z,3.35
2023-05-23T20:41:53.584Z,3.25
2023-05-23T20:47:53.749Z,2.80
2023-05-23T20:50:47.509Z,4.65
2023-05-23T20:53:41.556Z,4.22
2023-05-23T20:57:11.017Z,3.63
2023-05-23T21:00:09.530Z,3.50
2023-05-23T21:03:18.874Z,3.67
2023-05-23T21:06:09.423Z,3.15
2023-05-23T21:09:02.974Z,3.08
2023-05-23T21:11:57.316Z,4.63
2023-05-23T21:14:57.374Z,3.05
2023-05-23T21:17:51.083Z,3.67
2023-05-23T21:21:01.126Z,2.73
2023-05-23T21:23:50.769Z,2.67
2023-05-23T21:26:45.419Z,2.83
2023-05-23T21:29:38.018Z,3.35
2023-05-23T21:32:30.667Z,3.38
2023-05-23T21:35:23.892Z,3.45
2023-05-23T21:38:16.936Z,3.88
2023-05-23T21:41:09.728Z,2.80
2023-05-23T21:44:09.288Z,4.13
2023-05-23T21:47:02.065Z,2.88
2023-05-23T21:49:54.857Z,3.00
2023-05-23T21:52:48.006Z,3.65
2023-05-23T21:55:40.931Z,3.97
2023-05-23T21:58:33.973Z,3.17
2023-05-23T22:01:28.070Z,2.72
2023-05-23T22:04:58.011Z,3.88
2023-05-23T22:07:50.468Z,2.67
2023-05-23T22:10:44.031Z,3.25
2023-05-23T22:13:36.831Z,2.85
2023-05-23T22:16:32.866Z,2.60
2023-05-23T22:19:26.046Z,2.35
2023-05-23T22:22:18.744Z,2.65
2023-05-23T22:25:11.611Z,4.30
2023-05-23T22:28:03.404Z,3.30
2023-05-23T22:30:56.381Z,3.17
2023-05-23T22:33:50.173Z,4.53
2023-05-23T22:36:42.888Z,4.50
2023-05-23T22:39:35.664Z,3.83
2023-05-23T22:45:45.132Z,3.53
2023-05-23T22:48:38.999Z,3.40
2023-05-23T22:51:34.311Z,3.80
2023-05-23T22:54:26.711Z,4.15
2023-05-23T22:57:20.081Z,3.47
2023-05-23T23:00:13.981Z,3.75
2023-05-23T23:06:23.086Z,2.78
2023-05-23T23:12:25.122Z,3.83
2023-05-23T23:15:18.120Z,3.20
2023-05-23T23:21:28.150Z,3.58
2023-05-23T23:27:38.529Z,3.35
2023-05-23T23:30:30.488Z,3.35
2023-05-23T23:33:22.929Z,3.03
2023-05-23T23:36:09.781Z,3.30
2023-05-23T23:38:55.881Z,3.53
2023-05-23T23:41:41.850Z,3.08
2023-05-23T23:44:29.525Z,3.08
2023-05-23T23:47:15.816Z,3.15
2023-05-23T23:50:06.686Z,4.63
2023-05-23T23:52:53.215Z,4.65
2023-05-23T23:55:39.023Z,3.85
2023-05-23T23:58:25.072Z,5.03
